sensor_id;sensor_type;location;lat;lon;timestamp;temperature;humidity
37356;DHT22;48747;50.250;18.848;2023-02-28T00:00:36;0.30;91.80
37356;DHT22;48747;50.250;18.848;2023-02-28T00:02:38;0.30;91.30
37356;DHT22;48747;50.250;18.848;2023-02-28T00:04:45;0.30;91.70
37356;DHT22;48747;50.250;18.848;2023-02-28T00:09:00;0.30;91.40
37356;DHT22;48747;50.250;18.848;2023-02-28T00:11:10;0.20;91.30
37356;DHT22;48747;50.250;18.848;2023-02-28T00:13:16;0.20;91.80
37356;DHT22;48747;50.250;18.848;2023-02-28T00:15:24;0.20;93.10
37356;DHT22;48747;50.250;18.848;2023-02-28T00:17:30;0.20;92.70
37356;DHT22;48747;50.250;18.848;2023-02-28T00:19:41;0.10;91.60
37356;DHT22;48747;50.250;18.848;2023-02-28T00:21:54;0.10;91.70
37356;DHT22;48747;50.250;18.848;2023-02-28T00:24:05;0.00;92.20
37356;DHT22;48747;50.250;18.848;2023-02-28T00:26:00;0.00;92.90
37356;DHT22;48747;50.250;18.848;2023-02-28T00:28:28;0.00;93.60
37356;DHT22;48747;50.250;18.848;2023-02-28T00:30:17;0.00;96.10
37356;DHT22;48747;50.250;18.848;2023-02-28T00:32:24;-0.10;95.60
37356;DHT22;48747;50.250;18.848;2023-02-28T00:34:32;0.00;96.40
37356;DHT22;48747;50.250;18.848;2023-02-28T00:36:40;0.00;95.90
37356;DHT22;48747;50.250;18.848;2023-02-28T00:38:48;-0.10;96.50
37356;DHT22;48747;50.250;18.848;2023-02-28T00:40:49;-0.10;96.80
37356;DHT22;48747;50.250;18.848;2023-02-28T00:42:52;-0.10;96.00
37356;DHT22;48747;50.250;18.848;2023-02-28T00:45:04;-0.10;96.50
37356;DHT22;48747;50.250;18.848;2023-02-28T00:47:14;-0.10;97.90
37356;DHT22;48747;50.250;18.848;2023-02-28T00:49:16;-0.10;97.70
37356;DHT22;48747;50.250;18.848;2023-02-28T00:51:30;-0.10;97.70
37356;DHT22;48747;50.250;18.848;2023-02-28T00:53:25;-0.10;97.20
37356;DHT22;48747;50.250;18.848;2023-02-28T00:57:37;-0.10;96.70
37356;DHT22;48747;50.250;18.848;2023-02-28T00:59:44;-0.10;96.90
37356;DHT22;48747;50.250;18.848;2023-02-28T01:01:53;-0.10;97.30
37356;DHT22;48747;50.250;18.848;2023-02-28T01:03:58;-0.10;98.30
37356;DHT22;48747;50.250;18.848;2023-02-28T01:06:13;-0.10;97.90
37356;DHT22;48747;50.250;18.848;2023-02-28T01:08:12;-0.10;98.40
37356;DHT22;48747;50.250;18.848;2023-02-28T01:10:24;-0.10;99.10
37356;DHT22;48747;50.250;18.848;2023-02-28T01:12:27;-0.10;99.80
37356;DHT22;48747;50.250;18.848;2023-02-28T01:14:31;-0.10;99.90
37356;DHT22;48747;50.250;18.848;2023-02-28T01:16:42;0.00;98.60
37356;DHT22;48747;50.250;18.848;2023-02-28T01:18:47;0.00;97.00
37356;DHT22;48747;50.250;18.848;2023-02-28T01:20:53;0.00;97.70
37356;DHT22;48747;50.250;18.848;2023-02-28T01:23:04;0.00;97.90
37356;DHT22;48747;50.250;18.848;2023-02-28T01:25:18;0.00;98.00
37356;DHT22;48747;50.250;18.848;2023-02-28T01:27:27;0.00;97.50
37356;DHT22;48747;50.250;18.848;2023-02-28T01:29:39;0.00;98.00
37356;DHT22;48747;50.250;18.848;2023-02-28T01:33:50;0.00;96.40
37356;DHT22;48747;50.250;18.848;2023-02-28T01:35:58;0.00;96.80
37356;DHT22;48747;50.250;18.848;2023-02-28T01:38:03;0.00;98.70
37356;DHT22;48747;50.250;18.848;2023-02-28T01:40:31;0.00;97.30
37356;DHT22;48747;50.250;18.848;2023-02-28T01:42:36;0.00;98.70
37356;DHT22;48747;50.250;18.848;2023-02-28T01:44:57;-0.10;99.70
37356;DHT22;48747;50.250;18.848;2023-02-28T01:47:32;-0.10;99.90
37356;DHT22;48747;50.250;18.848;2023-02-28T01:49:16;-0.10;99.90
37356;DHT22;48747;50.250;18.848;2023-02-28T01:51:44;-0.10;99.90
37356;DHT22;48747;50.250;18.848;2023-02-28T01:53:51;-0.10;99.90
37356;DHT22;48747;50.250;18.848;2023-02-28T01:55:47;-0.20;99.90
37356;DHT22;48747;50.250;18.848;2023-02-28T01:57:52;-0.20;99.90
37356;DHT22;48747;50.250;18.848;2023-02-28T02:00:00;-0.20;99.90
37356;DHT22;48747;50.250;18.848;2023-02-28T02:02:05;-0.20;99.90
37356;DHT22;48747;50.250;18.848;2023-02-28T02:06:18;-0.30;99.90
37356;DHT22;48747;50.250;18.848;2023-02-28T02:08:25;-0.30;99.90
37356;DHT22;48747;50.250;18.848;2023-02-28T02:10:36;-0.30;99.90
37356;DHT22;48747;50.250;18.848;2023-02-28T02:13:01;-0.30;99.90
37356;DHT22;48747;50.250;18.848;2023-02-28T02:15:13;-0.30;99.90
37356;DHT22;48747;50.250;18.848;2023-02-28T02:17:39;-0.40;99.90
37356;DHT22;48747;50.250;18.848;2023-02-28T02:36:52;-0.50;99.90
37356;DHT22;48747;50.250;18.848;2023-02-28T02:39:25;-0.50;99.90
37356;DHT22;48747;50.250;18.848;2023-02-28T02:41:32;-0.60;99.90
37356;DHT22;48747;50.250;18.848;2023-02-28T02:43:35;-0.70;99.90
37356;DHT22;48747;50.250;18.848;2023-02-28T02:45:55;-0.70;99.90
37356;DHT22;48747;50.250;18.848;2023-02-28T02:48:19;-0.70;99.90
37356;DHT22;48747;50.250;18.848;2023-02-28T02:50:08;-0.80;99.90
37356;DHT22;48747;50.250;18.848;2023-02-28T02:52:23;-0.80;99.90
37356;DHT22;48747;50.250;18.848;2023-02-28T02:54:28;-0.80;99.90
37356;DHT22;48747;50.250;18.848;2023-02-28T02:56:38;-0.90;99.90
37356;DHT22;48747;50.250;18.848;2023-02-28T02:58:45;-0.90;99.90
37356;DHT22;48747;50.250;18.848;2023-02-28T03:00:50;-0.90;99.90
37356;DHT22;48747;50.250;18.848;2023-02-28T03:03:13;-1.00;99.90
37356;DHT22;48747;50.250;18.848;2023-02-28T03:05:20;-1.10;99.90
37356;DHT22;48747;50.250;18.848;2023-02-28T03:07:39;-1.10;99.90
37356;DHT22;48747;50.250;18.848;2023-02-28T03:09:49;-1.10;99.90
37356;DHT22;48747;50.250;18.848;2023-02-28T03:11:40;-1.20;99.90
37356;DHT22;48747;50.250;18.848;2023-02-28T03:14:10;-1.20;99.90
37356;DHT22;48747;50.250;18.848;2023-02-28T03:23:38;-1.40;99.90
37356;DHT22;48747;50.250;18.848;2023-02-28T03:26:02;-1.40;99.90
37356;DHT22;48747;50.250;18.848;2023-02-28T03:28:09;-1.30;99.90
37356;DHT22;48747;50.250;18.848;2023-02-28T03:32:41;-1.40;99.90
37356;DHT22;48747;50.250;18.848;2023-02-28T03:34:50;-1.40;99.90
37356;DHT22;48747;50.250;18.848;2023-02-28T03:36:57;-1.40;99.90
37356;DHT22;48747;50.250;18.848;2023-02-28T03:39:05;-1.40;99.90
37356;DHT22;48747;50.250;18.848;2023-02-28T03:41:24;-1.50;99.90
37356;DHT22;48747;50.250;18.848;2023-02-28T03:43:31;-1.60;99.90
37356;DHT22;48747;50.250;18.848;2023-02-28T03:50:17;-1.70;99.90
37356;DHT22;48747;50.250;18.848;2023-02-28T03:52:15;-1.70;99.90
37356;DHT22;48747;50.250;18.848;2023-02-28T03:54:27;-1.70;99.90
37356;DHT22;48747;50.250;18.848;2023-02-28T04:03:16;-1.70;99.90
37356;DHT22;48747;50.250;18.848;2023-02-28T04:05:22;-1.80;99.90
37356;DHT22;48747;50.250;18.848;2023-02-28T04:07:45;-1.80;99.90
37356;DHT22;48747;50.250;18.848;2023-02-28T04:09:39;-1.80;99.90
37356;DHT22;48747;50.250;18.848;2023-02-28T04:11:45;-1.80;99.90
37356;DHT22;48747;50.250;18.848;2023-02-28T04:13:49;-1.80;99.90
37356;DHT22;48747;50.250;18.848;2023-02-28T04:16:06;-1.80;99.90
37356;DHT22;48747;50.250;18.848;2023-02-28T04:18:32;-1.80;99.90
37356;DHT22;48747;50.250;18.848;2023-02-28T04:20:21;-1.80;99.90
37356;DHT22;48747;50.250;18.848;2023-02-28T04:22:25;-1.80;99.90
37356;DHT22;48747;50.250;18.848;2023-02-28T04:24:30;-1.80;99.90
37356;DHT22;48747;50.250;18.848;2023-02-28T04:26:40;-1.90;99.90
37356;DHT22;48747;50.250;18.848;2023-02-28T04:28:47;-1.80;99.90
37356;DHT22;48747;50.250;18.848;2023-02-28T04:30:59;-1.80;99.90
37356;DHT22;48747;50.250;18.848;2023-02-28T04:33:04;-1.80;99.90
37356;DHT22;48747;50.250;18.848;2023-02-28T04:35:12;-1.80;99.90
37356;DHT22;48747;50.250;18.848;2023-02-28T04:37:19;-1.70;99.90
37356;DHT22;48747;50.250;18.848;2023-02-28T04:39:25;-1.80;99.90
37356;DHT22;48747;50.250;18.848;2023-02-28T04:41:33;-1.80;99.90
37356;DHT22;48747;50.250;18.848;2023-02-28T04:43:39;-1.80;99.90
37356;DHT22;48747;50.250;18.848;2023-02-28T04:45:46;-1.80;99.90
37356;DHT22;48747;50.250;18.848;2023-02-28T04:47:47;-1.80;99.90
37356;DHT22;48747;50.250;18.848;2023-02-28T04:49:57;-1.80;99.90
37356;DHT22;48747;50.250;18.848;2023-02-28T04:52:03;-1.80;99.90
37356;DHT22;48747;50.250;18.848;2023-02-28T04:54:09;-1.80;99.90
37356;DHT22;48747;50.250;18.848;2023-02-28T04:56:16;-1.90;99.90
37356;DHT22;48747;50.250;18.848;2023-02-28T04:58:21;-1.80;99.90
37356;DHT22;48747;50.250;18.848;2023-02-28T05:00:26;-1.80;99.90
37356;DHT22;48747;50.250;18.848;2023-02-28T05:02:33;-1.90;99.90
37356;DHT22;48747;50.250;18.848;2023-02-28T05:04:59;-1.90;99.90
37356;DHT22;48747;50.250;18.848;2023-02-28T05:06:51;-1.90;99.90
37356;DHT22;48747;50.250;18.848;2023-02-28T05:08:54;-2.00;99.90
37356;DHT22;48747;50.250;18.848;2023-02-28T05:11:00;-1.90;99.90
37356;DHT22;48747;50.250;18.848;2023-02-28T05:13:11;-1.90;99.90
37356;DHT22;48747;50.250;18.848;2023-02-28T05:15:21;-1.90;99.90
37356;DHT22;48747;50.250;18.848;2023-02-28T05:17:25;-2.00;99.90
37356;DHT22;48747;50.250;18.848;2023-02-28T05:19:28;-2.00;99.90
37356;DHT22;48747;50.250;18.848;2023-02-28T05:21:37;-2.00;99.90
37356;DHT22;48747;50.250;18.848;2023-02-28T05:23:43;-2.00;99.90
37356;DHT22;48747;50.250;18.848;2023-02-28T05:25:48;-2.10;99.90
37356;DHT22;48747;50.250;18.848;2023-02-28T05:27:53;-2.00;99.90
37356;DHT22;48747;50.250;18.848;2023-02-28T05:32:09;-2.00;99.90
37356;DHT22;48747;50.250;18.848;2023-02-28T05:34:14;-2.10;99.90
37356;DHT22;48747;50.250;18.848;2023-02-28T05:36:19;-2.10;99.90
37356;DHT22;48747;50.250;18.848;2023-02-28T05:38:24;-2.00;99.90
37356;DHT22;48747;50.250;18.848;2023-02-28T05:40:40;-2.10;99.90
37356;DHT22;48747;50.250;18.848;2023-02-28T05:42:35;-2.00;99.90
37356;DHT22;48747;50.250;18.848;2023-02-28T05:44:45;-2.00;99.90
37356;DHT22;48747;50.250;18.848;2023-02-28T05:46:47;-2.00;99.90
37356;DHT22;48747;50.250;18.848;2023-02-28T05:48:59;-2.00;99.90
37356;DHT22;48747;50.250;18.848;2023-02-28T05:50:58;-2.00;99.90
37356;DHT22;48747;50.250;18.848;2023-02-28T05:53:05;-2.00;99.90
37356;DHT22;48747;50.250;18.848;2023-02-28T05:55:27;-2.00;99.90
37356;DHT22;48747;50.250;18.848;2023-02-28T05:57:19;-2.00;99.90
37356;DHT22;48747;50.250;18.848;2023-02-28T05:59:26;-2.00;99.90
37356;DHT22;48747;50.250;18.848;2023-02-28T06:05:56;-2.10;99.90
37356;DHT22;48747;50.250;18.848;2023-02-28T06:08:01;-2.00;99.90
37356;DHT22;48747;50.250;18.848;2023-02-28T06:10:04;-2.00;99.90
37356;DHT22;48747;50.250;18.848;2023-02-28T06:12:12;-2.10;99.90
37356;DHT22;48747;50.250;18.848;2023-02-28T06:14:20;-2.10;99.90
37356;DHT22;48747;50.250;18.848;2023-02-28T06:16:24;-2.10;99.90
37356;DHT22;48747;50.250;18.848;2023-02-28T06:18:32;-2.10;99.90
37356;DHT22;48747;50.250;18.848;2023-02-28T06:20:51;-2.10;99.90
37356;DHT22;48747;50.250;18.848;2023-02-28T06:22:47;-2.10;99.90
37356;DHT22;48747;50.250;18.848;2023-02-28T06:24:53;-2.00;99.90
37356;DHT22;48747;50.250;18.848;2023-02-28T06:26:58;-2.00;99.90
37356;DHT22;48747;50.250;18.848;2023-02-28T06:29:05;-1.90;99.90
37356;DHT22;48747;50.250;18.848;2023-02-28T06:31:16;-1.90;99.90
37356;DHT22;48747;50.250;18.848;2023-02-28T06:35:29;-1.70;99.90
37356;DHT22;48747;50.250;18.848;2023-02-28T06:37:48;-1.60;99.90
37356;DHT22;48747;50.250;18.848;2023-02-28T06:39:56;-1.60;99.90
37356;DHT22;48747;50.250;18.848;2023-02-28T06:42:08;-1.50;99.90
37356;DHT22;48747;50.250;18.848;2023-02-28T06:44:10;-1.50;99.90
37356;DHT22;48747;50.250;18.848;2023-02-28T06:48:14;-1.30;99.90
37356;DHT22;48747;50.250;18.848;2023-02-28T06:52:35;-1.20;99.90
37356;DHT22;48747;50.250;18.848;2023-02-28T06:54:47;-1.10;99.90
37356;DHT22;48747;50.250;18.848;2023-02-28T06:59:02;-1.00;99.90
37356;DHT22;48747;50.250;18.848;2023-02-28T07:01:10;-1.00;99.90
37356;DHT22;48747;50.250;18.848;2023-02-28T07:03:34;-0.90;99.90
37356;DHT22;48747;50.250;18.848;2023-02-28T07:05:26;-0.90;99.90
37356;DHT22;48747;50.250;18.848;2023-02-28T07:07:31;-0.80;99.90
37356;DHT22;48747;50.250;18.848;2023-02-28T07:09:44;-0.70;99.90
37356;DHT22;48747;50.250;18.848;2023-02-28T07:11:58;-0.60;99.90
37356;DHT22;48747;50.250;18.848;2023-02-28T07:13:58;-0.60;99.90
37356;DHT22;48747;50.250;18.848;2023-02-28T07:18:14;-0.40;99.90
37356;DHT22;48747;50.250;18.848;2023-02-28T07:20:25;-0.30;99.90
37356;DHT22;48747;50.250;18.848;2023-02-28T07:22:26;-0.20;99.90
37356;DHT22;48747;50.250;18.848;2023-02-28T07:24:32;-0.20;99.90
37356;DHT22;48747;50.250;18.848;2023-02-28T07:26:55;-0.20;99.90
37356;DHT22;48747;50.250;18.848;2023-02-28T07:31:06;-0.20;99.90
37356;DHT22;48747;50.250;18.848;2023-02-28T07:33:11;-0.20;99.90
37356;DHT22;48747;50.250;18.848;2023-02-28T07:35:29;-0.10;99.90
37356;DHT22;48747;50.250;18.848;2023-02-28T07:37:47;0.00;99.90
37356;DHT22;48747;50.250;18.848;2023-02-28T07:39:43;0.00;99.90
37356;DHT22;48747;50.250;18.848;2023-02-28T07:41:48;0.00;99.90
37356;DHT22;48747;50.250;18.848;2023-02-28T07:44:03;-0.10;99.90
37356;DHT22;48747;50.250;18.848;2023-02-28T07:46:27;0.00;99.90
37356;DHT22;48747;50.250;18.848;2023-02-28T07:48:17;0.00;99.90
37356;DHT22;48747;50.250;18.848;2023-02-28T07:50:18;0.00;99.90
37356;DHT22;48747;50.250;18.848;2023-02-28T07:52:25;0.00;99.90
37356;DHT22;48747;50.250;18.848;2023-02-28T07:54:36;0.00;99.90
37356;DHT22;48747;50.250;18.848;2023-02-28T07:56:40;0.00;99.90
37356;DHT22;48747;50.250;18.848;2023-02-28T07:58:48;0.00;99.90
37356;DHT22;48747;50.250;18.848;2023-02-28T08:00:50;0.00;99.90
37356;DHT22;48747;50.250;18.848;2023-02-28T08:03:02;0.00;99.90
37356;DHT22;48747;50.250;18.848;2023-02-28T08:05:12;0.10;99.90
37356;DHT22;48747;50.250;18.848;2023-02-28T08:07:19;0.10;99.90
37356;DHT22;48747;50.250;18.848;2023-02-28T08:09:29;0.10;99.90
37356;DHT22;48747;50.250;18.848;2023-02-28T08:11:35;0.10;99.90
37356;DHT22;48747;50.250;18.848;2023-02-28T08:13:41;0.10;99.90
37356;DHT22;48747;50.250;18.848;2023-02-28T08:15:44;0.10;99.90
37356;DHT22;48747;50.250;18.848;2023-02-28T08:20:02;0.40;99.90
37356;DHT22;48747;50.250;18.848;2023-02-28T08:22:07;0.60;99.90
37356;DHT22;48747;50.250;18.848;2023-02-28T08:24:17;0.70;98.10
37356;DHT22;48747;50.250;18.848;2023-02-28T08:26:19;0.80;96.90
37356;DHT22;48747;50.250;18.848;2023-02-28T08:28:24;0.90;97.50
37356;DHT22;48747;50.250;18.848;2023-02-28T08:30:30;1.00;96.40
37356;DHT22;48747;50.250;18.848;2023-02-28T08:32:36;1.10;94.30
37356;DHT22;48747;50.250;18.848;2023-02-28T08:34:44;1.10;93.50
37356;DHT22;48747;50.250;18.848;2023-02-28T08:36:58;1.10;92.10
37356;DHT22;48747;50.250;18.848;2023-02-28T08:38:57;1.30;93.80
37356;DHT22;48747;50.250;18.848;2023-02-28T08:41:12;1.30;93.40
37356;DHT22;48747;50.250;18.848;2023-02-28T08:43:12;1.40;91.70
37356;DHT22;48747;50.250;18.848;2023-02-28T08:45:16;1.50;91.10
37356;DHT22;48747;50.250;18.848;2023-02-28T08:47:28;1.60;90.40
37356;DHT22;48747;50.250;18.848;2023-02-28T08:49:34;1.50;89.40
37356;DHT22;48747;50.250;18.848;2023-02-28T08:51:42;1.50;84.60
37356;DHT22;48747;50.250;18.848;2023-02-28T08:53:46;1.60;84.40
37356;DHT22;48747;50.250;18.848;2023-02-28T08:56:00;1.60;84.50
37356;DHT22;48747;50.250;18.848;2023-02-28T08:58:06;1.80;85.20
37356;DHT22;48747;50.250;18.848;2023-02-28T09:00:10;1.80;83.10
37356;DHT22;48747;50.250;18.848;2023-02-28T09:02:21;1.90;81.70
37356;DHT22;48747;50.250;18.848;2023-02-28T09:04:24;1.90;80.90
37356;DHT22;48747;50.250;18.848;2023-02-28T09:06:29;1.90;80.00
37356;DHT22;48747;50.250;18.848;2023-02-28T09:08:35;1.80;77.80
37356;DHT22;48747;50.250;18.848;2023-02-28T09:10:40;1.90;78.00
37356;DHT22;48747;50.250;18.848;2023-02-28T09:12:57;1.90;77.10
37356;DHT22;48747;50.250;18.848;2023-02-28T09:15:04;2.00;76.20
37356;DHT22;48747;50.250;18.848;2023-02-28T09:16:59;1.90;75.90
37356;DHT22;48747;50.250;18.848;2023-02-28T09:19:05;2.00;76.60
37356;DHT22;48747;50.250;18.848;2023-02-28T09:21:17;1.90;76.50
37356;DHT22;48747;50.250;18.848;2023-02-28T09:23:22;1.80;77.30
37356;DHT22;48747;50.250;18.848;2023-02-28T09:25:23;1.80;77.20
37356;DHT22;48747;50.250;18.848;2023-02-28T09:27:35;1.90;77.60
37356;DHT22;48747;50.250;18.848;2023-02-28T09:29:37;1.90;77.30
37356;DHT22;48747;50.250;18.848;2023-02-28T09:31:42;1.90;79.20
37356;DHT22;48747;50.250;18.848;2023-02-28T09:34:00;2.00;78.30
37356;DHT22;48747;50.250;18.848;2023-02-28T09:36:04;1.90;76.80
37356;DHT22;48747;50.250;18.848;2023-02-28T09:38:10;1.90;78.10
37356;DHT22;48747;50.250;18.848;2023-02-28T09:42:29;2.00;77.10
37356;DHT22;48747;50.250;18.848;2023-02-28T09:44:40;2.10;78.30
37356;DHT22;48747;50.250;18.848;2023-02-28T09:46:48;2.20;75.50
37356;DHT22;48747;50.250;18.848;2023-02-28T09:48:51;2.00;76.40
37356;DHT22;48747;50.250;18.848;2023-02-28T09:53:36;1.80;76.60
37356;DHT22;48747;50.250;18.848;2023-02-28T09:55:44;1.70;78.30
37356;DHT22;48747;50.250;18.848;2023-02-28T09:57:57;1.70;78.70
37356;DHT22;48747;50.250;18.848;2023-02-28T10:00:10;1.80;77.90
37356;DHT22;48747;50.250;18.848;2023-02-28T10:04:50;1.70;78.20
37356;DHT22;48747;50.250;18.848;2023-02-28T10:07:00;1.80;77.30
37356;DHT22;48747;50.250;18.848;2023-02-28T10:09:19;1.80;78.50
37356;DHT22;48747;50.250;18.848;2023-02-28T10:15:41;1.90;78.40
37356;DHT22;48747;50.250;18.848;2023-02-28T10:17:53;2.00;78.40
37356;DHT22;48747;50.250;18.848;2023-02-28T10:20:01;2.10;77.70
37356;DHT22;48747;50.250;18.848;2023-02-28T10:22:31;2.10;77.90
37356;DHT22;48747;50.250;18.848;2023-02-28T10:24:37;2.20;78.50
37356;DHT22;48747;50.250;18.848;2023-02-28T10:26:45;2.40;77.60
37356;DHT22;48747;50.250;18.848;2023-02-28T10:28:51;2.60;76.70
37356;DHT22;48747;50.250;18.848;2023-02-28T10:30:57;2.90;76.50
37356;DHT22;48747;50.250;18.848;2023-02-28T10:41:59;3.60;72.40
37356;DHT22;48747;50.250;18.848;2023-02-28T10:44:30;3.60;71.20
37356;DHT22;48747;50.250;18.848;2023-02-28T10:46:23;3.90;71.50
37356;DHT22;48747;50.250;18.848;2023-02-28T10:48:32;4.20;73.00
37356;DHT22;48747;50.250;18.848;2023-02-28T10:50:46;4.40;68.90
37356;DHT22;48747;50.250;18.848;2023-02-28T10:57:30;4.00;69.00
37356;DHT22;48747;50.250;18.848;2023-02-28T10:59:40;4.00;69.10
37356;DHT22;48747;50.250;18.848;2023-02-28T11:01:44;4.00;69.10
37356;DHT22;48747;50.250;18.848;2023-02-28T11:03:56;4.10;68.80
37356;DHT22;48747;50.250;18.848;2023-02-28T11:05:54;4.10;68.40
37356;DHT22;48747;50.250;18.848;2023-02-28T11:08:26;4.00;68.80
37356;DHT22;48747;50.250;18.848;2023-02-28T11:10:19;3.80;67.40
37356;DHT22;48747;50.250;18.848;2023-02-28T11:14:52;3.70;68.10
37356;DHT22;48747;50.250;18.848;2023-02-28T11:19:38;3.50;67.80
37356;DHT22;48747;50.250;18.848;2023-02-28T11:21:40;3.50;69.30
37356;DHT22;48747;50.250;18.848;2023-02-28T11:24:02;3.60;69.50
37356;DHT22;48747;50.250;18.848;2023-02-28T11:26:17;3.70;70.00
37356;DHT22;48747;50.250;18.848;2023-02-28T11:30:59;3.60;70.10
37356;DHT22;48747;50.250;18.848;2023-02-28T11:32:48;3.40;68.00
37356;DHT22;48747;50.250;18.848;2023-02-28T11:35:23;3.40;69.00
37356;DHT22;48747;50.250;18.848;2023-02-28T11:37:23;3.40;69.30
37356;DHT22;48747;50.250;18.848;2023-02-28T11:39:26;3.30;69.50
37356;DHT22;48747;50.250;18.848;2023-02-28T11:41:39;3.30;67.50
37356;DHT22;48747;50.250;18.848;2023-02-28T11:46:01;3.40;69.40
37356;DHT22;48747;50.250;18.848;2023-02-28T11:48:24;3.50;70.10
37356;DHT22;48747;50.250;18.848;2023-02-28T11:53:14;3.40;69.00
37356;DHT22;48747;50.250;18.848;2023-02-28T12:02:15;3.30;70.90
37356;DHT22;48747;50.250;18.848;2023-02-28T12:14:10;3.50;71.20
37356;DHT22;48747;50.250;18.848;2023-02-28T12:21:26;3.40;71.80
37356;DHT22;48747;50.250;18.848;2023-02-28T12:26:24;3.40;72.70
37356;DHT22;48747;50.250;18.848;2023-02-28T12:28:34;3.50;72.90
37356;DHT22;48747;50.250;18.848;2023-02-28T12:30:41;3.60;71.00
37356;DHT22;48747;50.250;18.848;2023-02-28T12:32:45;3.60;72.20
37356;DHT22;48747;50.250;18.848;2023-02-28T12:35:03;3.60;72.70
37356;DHT22;48747;50.250;18.848;2023-02-28T12:37:09;3.50;71.90
37356;DHT22;48747;50.250;18.848;2023-02-28T12:39:23;3.50;71.10
37356;DHT22;48747;50.250;18.848;2023-02-28T12:41:29;3.50;72.50
37356;DHT22;48747;50.250;18.848;2023-02-28T12:43:33;3.50;71.10
37356;DHT22;48747;50.250;18.848;2023-02-28T12:45:43;3.50;71.60
37356;DHT22;48747;50.250;18.848;2023-02-28T12:47:52;3.50;73.70
37356;DHT22;48747;50.250;18.848;2023-02-28T12:49:59;3.40;71.30
37356;DHT22;48747;50.250;18.848;2023-02-28T12:52:04;3.60;72.00
37356;DHT22;48747;50.250;18.848;2023-02-28T12:54:24;3.60;72.00
37356;DHT22;48747;50.250;18.848;2023-02-28T12:59:13;3.50;72.40
37356;DHT22;48747;50.250;18.848;2023-02-28T13:01:42;3.40;70.90
37356;DHT22;48747;50.250;18.848;2023-02-28T13:13:25;3.40;71.10
37356;DHT22;48747;50.250;18.848;2023-02-28T13:15:37;3.50;71.50
37356;DHT22;48747;50.250;18.848;2023-02-28T13:17:46;3.50;71.10
37356;DHT22;48747;50.250;18.848;2023-02-28T13:22:35;3.60;71.60
37356;DHT22;48747;50.250;18.848;2023-02-28T13:29:02;3.70;71.30
37356;DHT22;48747;50.250;18.848;2023-02-28T13:31:10;3.70;71.00
37356;DHT22;48747;50.250;18.848;2023-02-28T13:35:44;3.90;71.40
37356;DHT22;48747;50.250;18.848;2023-02-28T13:37:50;4.10;71.90
37356;DHT22;48747;50.250;18.848;2023-02-28T13:49:34;4.20;71.00
37356;DHT22;48747;50.250;18.848;2023-02-28T13:54:13;4.10;70.50
37356;DHT22;48747;50.250;18.848;2023-02-28T13:56:33;4.10;70.20
37356;DHT22;48747;50.250;18.848;2023-02-28T14:01:14;4.20;69.50
37356;DHT22;48747;50.250;18.848;2023-02-28T14:05:46;4.00;69.70
37356;DHT22;48747;50.250;18.848;2023-02-28T14:14:59;4.10;68.40
37356;DHT22;48747;50.250;18.848;2023-02-28T14:17:07;4.20;69.30
37356;DHT22;48747;50.250;18.848;2023-02-28T14:19:31;4.10;68.50
37356;DHT22;48747;50.250;18.848;2023-02-28T14:21:38;4.10;68.70
37356;DHT22;48747;50.250;18.848;2023-02-28T14:31:20;4.20;68.80
37356;DHT22;48747;50.250;18.848;2023-02-28T14:35:54;4.10;68.60
37356;DHT22;48747;50.250;18.848;2023-02-28T14:37:59;4.20;68.90
37356;DHT22;48747;50.250;18.848;2023-02-28T14:40:45;4.20;69.30
37356;DHT22;48747;50.250;18.848;2023-02-28T14:46:52;3.80;69.20
37356;DHT22;48747;50.250;18.848;2023-02-28T14:51:30;3.80;68.30
37356;DHT22;48747;50.250;18.848;2023-02-28T14:53:30;3.80;68.10
37356;DHT22;48747;50.250;18.848;2023-02-28T14:55:54;3.80;68.20
37356;DHT22;48747;50.250;18.848;2023-02-28T14:57:56;3.80;69.70
37356;DHT22;48747;50.250;18.848;2023-02-28T15:00:03;3.80;69.60
37356;DHT22;48747;50.250;18.848;2023-02-28T15:02:19;3.80;69.70
37356;DHT22;48747;50.250;18.848;2023-02-28T15:04:27;3.80;69.40
37356;DHT22;48747;50.250;18.848;2023-02-28T15:08:43;3.80;69.60
37356;DHT22;48747;50.250;18.848;2023-02-28T15:20:27;3.80;70.10
37356;DHT22;48747;50.250;18.848;2023-02-28T15:22:35;3.70;70.30
37356;DHT22;48747;50.250;18.848;2023-02-28T15:27:34;3.70;70.60
37356;DHT22;48747;50.250;18.848;2023-02-28T15:29:20;3.70;71.70
37356;DHT22;48747;50.250;18.848;2023-02-28T15:31:41;3.70;71.10
37356;DHT22;48747;50.250;18.848;2023-02-28T15:33:51;3.60;70.70
37356;DHT22;48747;50.250;18.848;2023-02-28T15:38:01;3.40;72.00
37356;DHT22;48747;50.250;18.848;2023-02-28T15:40:27;3.50;71.50
37356;DHT22;48747;50.250;18.848;2023-02-28T15:42:33;3.40;71.70
37356;DHT22;48747;50.250;18.848;2023-02-28T15:44:44;3.40;72.30
37356;DHT22;48747;50.250;18.848;2023-02-28T15:49:03;3.30;72.00
37356;DHT22;48747;50.250;18.848;2023-02-28T15:51:20;3.20;72.90
37356;DHT22;48747;50.250;18.848;2023-02-28T15:53:37;3.20;73.00
37356;DHT22;48747;50.250;18.848;2023-02-28T15:56:24;3.10;73.40
37356;DHT22;48747;50.250;18.848;2023-02-28T15:57:51;3.00;73.70
37356;DHT22;48747;50.250;18.848;2023-02-28T16:02:15;2.90;74.50
37356;DHT22;48747;50.250;18.848;2023-02-28T16:04:22;2.80;74.60
37356;DHT22;48747;50.250;18.848;2023-02-28T16:06:53;2.80;76.00
37356;DHT22;48747;50.250;18.848;2023-02-28T16:08:54;2.70;76.70
37356;DHT22;48747;50.250;18.848;2023-02-28T16:10:56;2.60;77.00
37356;DHT22;48747;50.250;18.848;2023-02-28T16:13:16;2.50;75.70
37356;DHT22;48747;50.250;18.848;2023-02-28T16:15:27;2.40;75.80
37356;DHT22;48747;50.250;18.848;2023-02-28T16:17:31;2.40;76.50
37356;DHT22;48747;50.250;18.848;2023-02-28T16:19:38;2.30;77.30
37356;DHT22;48747;50.250;18.848;2023-02-28T16:21:50;2.20;77.50
37356;DHT22;48747;50.250;18.848;2023-02-28T16:24:05;2.20;78.30
37356;DHT22;48747;50.250;18.848;2023-02-28T16:26:26;2.10;78.20
37356;DHT22;48747;50.250;18.848;2023-02-28T16:28:26;2.10;78.40
37356;DHT22;48747;50.250;18.848;2023-02-28T16:30:26;2.00;78.70
37356;DHT22;48747;50.250;18.848;2023-02-28T16:32:32;2.00;78.70
37356;DHT22;48747;50.250;18.848;2023-02-28T16:34:43;2.00;79.40
37356;DHT22;48747;50.250;18.848;2023-02-28T16:36:51;1.90;79.60
37356;DHT22;48747;50.250;18.848;2023-02-28T16:38:54;1.80;80.40
37356;DHT22;48747;50.250;18.848;2023-02-28T16:41:16;1.80;80.90
37356;DHT22;48747;50.250;18.848;2023-02-28T16:43:13;1.80;81.60
37356;DHT22;48747;50.250;18.848;2023-02-28T16:45:29;1.70;82.60
37356;DHT22;48747;50.250;18.848;2023-02-28T16:47:40;1.70;83.50
37356;DHT22;48747;50.250;18.848;2023-02-28T16:49:57;1.60;84.30
37356;DHT22;48747;50.250;18.848;2023-02-28T16:54:01;1.50;89.00
37356;DHT22;48747;50.250;18.848;2023-02-28T16:56:28;1.50;89.30
37356;DHT22;48747;50.250;18.848;2023-02-28T16:58:22;1.50;90.00
37356;DHT22;48747;50.250;18.848;2023-02-28T17:00:30;1.40;90.30
37356;DHT22;48747;50.250;18.848;2023-02-28T17:04:42;1.40;91.10